sensor_id;sensor_type;location;lat;lon;timestamp;P1;durP1;ratioP1;P2;durP2;ratioP2
42714;SDS011;28351;51.480;5.706;2023-04-24T00:00:20;13.57;;;7.85;;
42714;SDS011;28351;51.480;5.706;2023-04-24T00:02:47;13.82;;;7.30;;
42714;SDS011;28351;51.480;5.706;2023-04-24T00:05:13;11.27;;;7.43;;
42714;SDS011;28351;51.480;5.706;2023-04-24T00:07:43;14.90;;;8.50;;
42714;SDS011;28351;51.480;5.706;2023-04-24T00:10:10;12.52;;;8.07;;
42714;SDS011;28351;51.480;5.706;2023-04-24T00:12:36;13.13;;;8.50;;
42714;SDS011;28351;51.480;5.706;2023-04-24T00:15:03;18.70;;;9.48;;
42714;SDS011;28351;51.480;5.706;2023-04-24T00:17:29;18.45;;;9.63;;
42714;SDS011;28351;51.480;5.706;2023-04-24T00:19:57;15.55;;;9.32;;
42714;SDS011;28351;51.480;5.706;2023-04-24T00:22:26;16.42;;;9.38;;
42714;SDS011;28351;51.480;5.706;2023-04-24T00:24:56;19.48;;;9.55;;
42714;SDS011;28351;51.480;5.706;2023-04-24T00:27:22;16.20;;;9.63;;
42714;SDS011;28351;51.480;5.706;2023-04-24T00:29:48;15.20;;;8.77;;
42714;SDS011;28351;51.480;5.706;2023-04-24T00:32:16;17.65;;;9.27;;
42714;SDS011;28351;51.480;5.706;2023-04-24T00:34:42;14.90;;;8.75;;
42714;SDS011;28351;51.480;5.706;2023-04-24T00:37:08;16.10;;;9.43;;
42714;SDS011;28351;51.480;5.706;2023-04-24T00:39:33;14.45;;;8.57;;
42714;SDS011;28351;51.480;5.706;2023-04-24T00:41:59;13.73;;;8.35;;
42714;SDS011;28351;51.480;5.706;2023-04-24T00:44:26;14.32;;;8.38;;
42714;SDS011;28351;51.480;5.706;2023-04-24T00:46:52;15.85;;;9.13;;
42714;SDS011;28351;51.480;5.706;2023-04-24T00:49:22;12.80;;;8.45;;
42714;SDS011;28351;51.480;5.706;2023-04-24T00:54:16;14.85;;;8.65;;
42714;SDS011;28351;51.480;5.706;2023-04-24T00:56:42;17.92;;;9.25;;
42714;SDS011;28351;51.480;5.706;2023-04-24T00:59:09;18.98;;;9.75;;
42714;SDS011;28351;51.480;5.706;2023-04-24T01:01:36;16.98;;;9.73;;
42714;SDS011;28351;51.480;5.706;2023-04-24T01:04:01;18.60;;;11.05;;
42714;SDS011;28351;51.480;5.706;2023-04-24T01:06:28;18.27;;;10.38;;
42714;SDS011;28351;51.480;5.706;2023-04-24T01:08:56;15.10;;;9.20;;
42714;SDS011;28351;51.480;5.706;2023-04-24T01:11:23;17.05;;;10.13;;
42714;SDS011;28351;51.480;5.706;2023-04-24T01:13:50;22.42;;;9.48;;
42714;SDS011;28351;51.480;5.706;2023-04-24T01:16:17;19.98;;;10.75;;
42714;SDS011;28351;51.480;5.706;2023-04-24T01:21:17;19.70;;;11.23;;
42714;SDS011;28351;51.480;5.706;2023-04-24T01:23:45;21.17;;;11.27;;
42714;SDS011;28351;51.480;5.706;2023-04-24T01:26:11;23.60;;;11.10;;
42714;SDS011;28351;51.480;5.706;2023-04-24T01:28:37;20.00;;;10.80;;
42714;SDS011;28351;51.480;5.706;2023-04-24T01:31:03;20.02;;;11.63;;
42714;SDS011;28351;51.480;5.706;2023-04-24T01:33:29;20.42;;;11.95;;
42714;SDS011;28351;51.480;5.706;2023-04-24T01:35:55;21.13;;;11.93;;
42714;SDS011;28351;51.480;5.706;2023-04-24T01:38:20;23.30;;;12.32;;
42714;SDS011;28351;51.480;5.706;2023-04-24T01:40:46;21.83;;;12.05;;
42714;SDS011;28351;51.480;5.706;2023-04-24T01:43:12;22.15;;;11.57;;
42714;SDS011;28351;51.480;5.706;2023-04-24T01:45:38;24.00;;;12.38;;
42714;SDS011;28351;51.480;5.706;2023-04-24T01:48:04;22.25;;;12.40;;
42714;SDS011;28351;51.480;5.706;2023-04-24T01:50:32;18.25;;;9.30;;
42714;SDS011;28351;51.480;5.706;2023-04-24T01:52:58;23.83;;;12.85;;
42714;SDS011;28351;51.480;5.706;2023-04-24T01:55:23;23.77;;;11.73;;
42714;SDS011;28351;51.480;5.706;2023-04-24T01:57:49;26.30;;;13.32;;
42714;SDS011;28351;51.480;5.706;2023-04-24T02:00:17;21.83;;;12.18;;
42714;SDS011;28351;51.480;5.706;2023-04-24T02:02:42;24.20;;;12.07;;
42714;SDS011;28351;51.480;5.706;2023-04-24T02:05:08;22.17;;;13.15;;
42714;SDS011;28351;51.480;5.706;2023-04-24T02:07:34;23.65;;;14.05;;
42714;SDS011;28351;51.480;5.706;2023-04-24T02:10:00;25.77;;;13.88;;
42714;SDS011;28351;51.480;5.706;2023-04-24T02:12:25;24.90;;;12.90;;
42714;SDS011;28351;51.480;5.706;2023-04-24T02:14:51;23.92;;;13.20;;
42714;SDS011;28351;51.480;5.706;2023-04-24T02:17:17;25.70;;;13.93;;
42714;SDS011;28351;51.480;5.706;2023-04-24T02:19:44;23.75;;;13.57;;
42714;SDS011;28351;51.480;5.706;2023-04-24T02:22:09;24.85;;;13.65;;
42714;SDS011;28351;51.480;5.706;2023-04-24T02:24:35;22.92;;;13.35;;
42714;SDS011;28351;51.480;5.706;2023-04-24T02:27:04;22.50;;;13.43;;
42714;SDS011;28351;51.480;5.706;2023-04-24T02:29:30;25.42;;;13.70;;
42714;SDS011;28351;51.480;5.706;2023-04-24T02:31:56;26.77;;;14.02;;
42714;SDS011;28351;51.480;5.706;2023-04-24T02:34:21;23.38;;;13.73;;
42714;SDS011;28351;51.480;5.706;2023-04-24T02:36:48;28.95;;;13.13;;
42714;SDS011;28351;51.480;5.706;2023-04-24T02:39:14;22.35;;;12.88;;
42714;SDS011;28351;51.480;5.706;2023-04-24T02:41:41;23.77;;;13.50;;
42714;SDS011;28351;51.480;5.706;2023-04-24T02:44:07;22.35;;;13.23;;
42714;SDS011;28351;51.480;5.706;2023-04-24T02:46:33;26.00;;;14.13;;
42714;SDS011;28351;51.480;5.706;2023-04-24T02:48:59;23.35;;;12.88;;
42714;SDS011;28351;51.480;5.706;2023-04-24T02:51:24;23.98;;;12.93;;
42714;SDS011;28351;51.480;5.706;2023-04-24T02:53:50;25.42;;;13.40;;
42714;SDS011;28351;51.480;5.706;2023-04-24T02:56:15;23.98;;;12.38;;
42714;SDS011;28351;51.480;5.706;2023-04-24T02:58:43;25.40;;;13.43;;
42714;SDS011;28351;51.480;5.706;2023-04-24T03:01:09;28.10;;;13.40;;
42714;SDS011;28351;51.480;5.706;2023-04-24T03:03:35;23.45;;;12.98;;
42714;SDS011;28351;51.480;5.706;2023-04-24T03:06:01;23.67;;;12.63;;
42714;SDS011;28351;51.480;5.706;2023-04-24T03:08:27;20.80;;;11.45;;
42714;SDS011;28351;51.480;5.706;2023-04-24T03:10:52;21.95;;;11.38;;
42714;SDS011;28351;51.480;5.706;2023-04-24T03:13:18;19.25;;;12.20;;
42714;SDS011;28351;51.480;5.706;2023-04-24T03:15:43;22.30;;;11.65;;
42714;SDS011;28351;51.480;5.706;2023-04-24T03:18:10;20.83;;;11.48;;
42714;SDS011;28351;51.480;5.706;2023-04-24T03:20:35;21.02;;;11.57;;
42714;SDS011;28351;51.480;5.706;2023-04-24T03:23:02;24.17;;;11.68;;
42714;SDS011;28351;51.480;5.706;2023-04-24T03:25:28;17.35;;;10.23;;
42714;SDS011;28351;51.480;5.706;2023-04-24T03:27:53;18.77;;;10.70;;
42714;SDS011;28351;51.480;5.706;2023-04-24T03:30:19;19.80;;;10.60;;
42714;SDS011;28351;51.480;5.706;2023-04-24T03:32:45;17.33;;;10.05;;
42714;SDS011;28351;51.480;5.706;2023-04-24T03:35:11;22.40;;;11.05;;
42714;SDS011;28351;51.480;5.706;2023-04-24T03:37:36;21.65;;;10.70;;
42714;SDS011;28351;51.480;5.706;2023-04-24T03:40:02;20.60;;;10.55;;
42714;SDS011;28351;51.480;5.706;2023-04-24T03:42:28;17.20;;;9.60;;
42714;SDS011;28351;51.480;5.706;2023-04-24T03:44:53;19.83;;;10.32;;
42714;SDS011;28351;51.480;5.706;2023-04-24T03:47:19;15.43;;;10.13;;
42714;SDS011;28351;51.480;5.706;2023-04-24T03:49:45;17.52;;;9.63;;
42714;SDS011;28351;51.480;5.706;2023-04-24T03:52:10;17.75;;;9.82;;
42714;SDS011;28351;51.480;5.706;2023-04-24T03:54:36;19.67;;;10.38;;
42714;SDS011;28351;51.480;5.706;2023-04-24T03:57:01;16.45;;;10.07;;
42714;SDS011;28351;51.480;5.706;2023-04-24T03:59:28;15.90;;;10.07;;
42714;SDS011;28351;51.480;5.706;2023-04-24T04:01:53;14.27;;;9.15;;
42714;SDS011;28351;51.480;5.706;2023-04-24T04:06:56;14.77;;;9.32;;
42714;SDS011;28351;51.480;5.706;2023-04-24T04:12:16;14.85;;;9.20;;
42714;SDS011;28351;51.480;5.706;2023-04-24T04:15:10;15.27;;;9.30;;
42714;SDS011;28351;51.480;5.706;2023-04-24T04:17:35;14.93;;;8.85;;
42714;SDS011;28351;51.480;5.706;2023-04-24T04:20:03;19.45;;;9.27;;
42714;SDS011;28351;51.480;5.706;2023-04-24T04:22:34;12.45;;;8.35;;
42714;SDS011;28351;51.480;5.706;2023-04-24T04:25:02;15.68;;;8.70;;
42714;SDS011;28351;51.480;5.706;2023-04-24T04:27:29;15.13;;;9.32;;
42714;SDS011;28351;51.480;5.706;2023-04-24T04:29:57;15.27;;;9.30;;
42714;SDS011;28351;51.480;5.706;2023-04-24T04:32:32;15.57;;;8.50;;
42714;SDS011;28351;51.480;5.706;2023-04-24T04:34:59;15.65;;;8.95;;
42714;SDS011;28351;51.480;5.706;2023-04-24T04:37:31;14.70;;;8.73;;
42714;SDS011;28351;51.480;5.706;2023-04-24T04:40:09;15.60;;;9.85;;
42714;SDS011;28351;51.480;5.706;2023-04-24T04:42:36;16.02;;;8.30;;
42714;SDS011;28351;51.480;5.706;2023-04-24T04:45:05;12.98;;;8.27;;
42714;SDS011;28351;51.480;5.706;2023-04-24T04:47:33;15.32;;;7.88;;
42714;SDS011;28351;51.480;5.706;2023-04-24T04:49:59;15.73;;;8.95;;
42714;SDS011;28351;51.480;5.706;2023-04-24T04:52:28;12.77;;;7.95;;
42714;SDS011;28351;51.480;5.706;2023-04-24T04:54:54;13.48;;;7.90;;
42714;SDS011;28351;51.480;5.706;2023-04-24T04:57:20;13.80;;;7.72;;
42714;SDS011;28351;51.480;5.706;2023-04-24T04:59:46;11.98;;;7.93;;
42714;SDS011;28351;51.480;5.706;2023-04-24T05:02:12;14.63;;;8.50;;
42714;SDS011;28351;51.480;5.706;2023-04-24T05:04:38;14.65;;;8.13;;
42714;SDS011;28351;51.480;5.706;2023-04-24T05:07:06;14.05;;;8.05;;
42714;SDS011;28351;51.480;5.706;2023-04-24T05:09:32;13.45;;;8.73;;
42714;SDS011;28351;51.480;5.706;2023-04-24T05:11:57;14.00;;;8.07;;
42714;SDS011;28351;51.480;5.706;2023-04-24T05:14:23;11.93;;;7.57;;
42714;SDS011;28351;51.480;5.706;2023-04-24T05:16:48;14.10;;;8.73;;
42714;SDS011;28351;51.480;5.706;2023-04-24T05:19:14;12.40;;;7.93;;
42714;SDS011;28351;51.480;5.706;2023-04-24T05:21:43;15.70;;;7.32;;
42714;SDS011;28351;51.480;5.706;2023-04-24T05:24:17;14.07;;;7.43;;
42714;SDS011;28351;51.480;5.706;2023-04-24T05:26:43;13.60;;;6.93;;
42714;SDS011;28351;51.480;5.706;2023-04-24T05:29:08;12.90;;;7.88;;
42714;SDS011;28351;51.480;5.706;2023-04-24T05:31:34;13.27;;;7.63;;
42714;SDS011;28351;51.480;5.706;2023-04-24T05:33:59;12.82;;;7.43;;
42714;SDS011;28351;51.480;5.706;2023-04-24T05:36:25;14.43;;;7.32;;
42714;SDS011;28351;51.480;5.706;2023-04-24T05:38:52;10.20;;;6.85;;
42714;SDS011;28351;51.480;5.706;2023-04-24T05:41:17;9.20;;;5.95;;
42714;SDS011;28351;51.480;5.706;2023-04-24T05:43:43;9.43;;;5.75;;
42714;SDS011;28351;51.480;5.706;2023-04-24T05:46:08;9.05;;;5.30;;
42714;SDS011;28351;51.480;5.706;2023-04-24T05:48:34;6.63;;;4.53;;
42714;SDS011;28351;51.480;5.706;2023-04-24T05:51:00;6.78;;;3.97;;
42714;SDS011;28351;51.480;5.706;2023-04-24T05:53:28;6.60;;;4.03;;
42714;SDS011;28351;51.480;5.706;2023-04-24T05:55:55;6.40;;;3.42;;
42714;SDS011;28351;51.480;5.706;2023-04-24T05:58:21;7.13;;;4.13;;
42714;SDS011;28351;51.480;5.706;2023-04-24T06:00:46;5.72;;;3.22;;
42714;SDS011;28351;51.480;5.706;2023-04-24T06:03:12;4.88;;;3.00;;
42714;SDS011;28351;51.480;5.706;2023-04-24T06:05:39;4.65;;;2.65;;
42714;SDS011;28351;51.480;5.706;2023-04-24T06:08:05;3.70;;;2.30;;
42714;SDS011;28351;51.480;5.706;2023-04-24T06:10:31;3.92;;;2.10;;
42714;SDS011;28351;51.480;5.706;2023-04-24T06:12:56;2.83;;;2.05;;
42714;SDS011;28351;51.480;5.706;2023-04-24T06:15:25;2.17;;;1.67;;
42714;SDS011;28351;51.480;5.706;2023-04-24T06:17:55;2.92;;;1.88;;
42714;SDS011;28351;51.480;5.706;2023-04-24T06:20:21;3.78;;;1.98;;
42714;SDS011;28351;51.480;5.706;2023-04-24T06:22:47;3.45;;;1.55;;
42714;SDS011;28351;51.480;5.706;2023-04-24T06:25:13;1.60;;;1.30;;
42714;SDS011;28351;51.480;5.706;2023-04-24T06:27:43;1.92;;;1.58;;
42714;SDS011;28351;51.480;5.706;2023-04-24T06:30:09;5.97;;;1.63;;
42714;SDS011;28351;51.480;5.706;2023-04-24T06:32:35;3.72;;;1.80;;
42714;SDS011;28351;51.480;5.706;2023-04-24T06:35:00;1.80;;;1.25;;
42714;SDS011;28351;51.480;5.706;2023-04-24T06:37:26;3.25;;;1.60;;
42714;SDS011;28351;51.480;5.706;2023-04-24T06:39:51;2.60;;;1.60;;
42714;SDS011;28351;51.480;5.706;2023-04-24T06:42:17;2.63;;;1.80;;
42714;SDS011;28351;51.480;5.706;2023-04-24T06:44:43;2.83;;;1.98;;
42714;SDS011;28351;51.480;5.706;2023-04-24T06:47:09;2.88;;;1.67;;
42714;SDS011;28351;51.480;5.706;2023-04-24T06:49:35;3.05;;;2.30;;
42714;SDS011;28351;51.480;5.706;2023-04-24T06:52:02;3.13;;;1.95;;
42714;SDS011;28351;51.480;5.706;2023-04-24T06:54:28;3.53;;;2.20;;
42714;SDS011;28351;51.480;5.706;2023-04-24T06:56:54;2.25;;;1.67;;
42714;SDS011;28351;51.480;5.706;2023-04-24T06:59:20;1.98;;;1.50;;
42714;SDS011;28351;51.480;5.706;2023-04-24T07:01:46;2.30;;;1.50;;
42714;SDS011;28351;51.480;5.706;2023-04-24T07:04:11;2.20;;;1.70;;
42714;SDS011;28351;51.480;5.706;2023-04-24T07:06:38;3.03;;;1.85;;
42714;SDS011;28351;51.480;5.706;2023-04-24T07:09:04;3.33;;;2.63;;
42714;SDS011;28351;51.480;5.706;2023-04-24T07:11:29;4.72;;;2.88;;
42714;SDS011;28351;51.480;5.706;2023-04-24T07:13:55;3.67;;;2.45;;
42714;SDS011;28351;51.480;5.706;2023-04-24T07:16:23;3.92;;;2.85;;
42714;SDS011;28351;51.480;5.706;2023-04-24T07:18:49;6.38;;;3.72;;
42714;SDS011;28351;51.480;5.706;2023-04-24T07:21:15;7.55;;;5.15;;
42714;SDS011;28351;51.480;5.706;2023-04-24T07:23:40;13.63;;;6.00;;
42714;SDS011;28351;51.480;5.706;2023-04-24T07:26:06;11.68;;;6.90;;
42714;SDS011;28351;51.480;5.706;2023-04-24T07:28:32;13.07;;;7.63;;
42714;SDS011;28351;51.480;5.706;2023-04-24T07:30:57;13.38;;;7.47;;
42714;SDS011;28351;51.480;5.706;2023-04-24T07:33:24;18.35;;;9.02;;
42714;SDS011;28351;51.480;5.706;2023-04-24T07:35:51;16.02;;;7.65;;
42714;SDS011;28351;51.480;5.706;2023-04-24T07:38:17;16.55;;;9.10;;
42714;SDS011;28351;51.480;5.706;2023-04-24T07:40:46;17.95;;;8.77;;
42714;SDS011;28351;51.480;5.706;2023-04-24T07:43:12;16.27;;;9.30;;
42714;SDS011;28351;51.480;5.706;2023-04-24T07:45:37;19.13;;;8.57;;
42714;SDS011;28351;51.480;5.706;2023-04-24T07:48:04;16.58;;;8.25;;
42714;SDS011;28351;51.480;5.706;2023-04-24T07:50:30;18.05;;;8.38;;
42714;SDS011;28351;51.480;5.706;2023-04-24T07:52:55;16.58;;;8.55;;
42714;SDS011;28351;51.480;5.706;2023-04-24T07:55:21;19.27;;;8.40;;
42714;SDS011;28351;51.480;5.706;2023-04-24T07:57:47;18.70;;;8.10;;
42714;SDS011;28351;51.480;5.706;2023-04-24T08:00:12;14.50;;;7.68;;
42714;SDS011;28351;51.480;5.706;2023-04-24T08:02:39;15.32;;;8.18;;
42714;SDS011;28351;51.480;5.706;2023-04-24T08:05:04;16.10;;;8.57;;
42714;SDS011;28351;51.480;5.706;2023-04-24T08:07:31;15.90;;;7.93;;
42714;SDS011;28351;51.480;5.706;2023-04-24T08:09:56;10.68;;;6.20;;
42714;SDS011;28351;51.480;5.706;2023-04-24T08:12:22;12.80;;;6.57;;
42714;SDS011;28351;51.480;5.706;2023-04-24T08:14:48;15.98;;;6.65;;
42714;SDS011;28351;51.480;5.706;2023-04-24T08:17:13;16.75;;;6.13;;
42714;SDS011;28351;51.480;5.706;2023-04-24T08:19:48;10.98;;;5.57;;
42714;SDS011;28351;51.480;5.706;2023-04-24T08:22:16;13.05;;;6.00;;
42714;SDS011;28351;51.480;5.706;2023-04-24T08:24:42;13.30;;;5.82;;
42714;SDS011;28351;51.480;5.706;2023-04-24T08:27:17;14.60;;;6.75;;
42714;SDS011;28351;51.480;5.706;2023-04-24T08:29:44;16.15;;;6.93;;
42714;SDS011;28351;51.480;5.706;2023-04-24T08:32:19;12.73;;;5.75;;
42714;SDS011;28351;51.480;5.706;2023-04-24T08:34:45;14.65;;;6.32;;
42714;SDS011;28351;51.480;5.706;2023-04-24T08:37:10;16.38;;;6.40;;
42714;SDS011;28351;51.480;5.706;2023-04-24T08:39:37;15.95;;;6.50;;
42714;SDS011;28351;51.480;5.706;2023-04-24T08:42:03;13.05;;;6.30;;
42714;SDS011;28351;51.480;5.706;2023-04-24T08:44:32;14.02;;;6.00;;
42714;SDS011;28351;51.480;5.706;2023-04-24T08:46:59;16.00;;;5.97;;
42714;SDS011;28351;51.480;5.706;2023-04-24T08:49:27;14.73;;;6.80;;
42714;SDS011;28351;51.480;5.706;2023-04-24T08:51:53;15.50;;;6.40;;
42714;SDS011;28351;51.480;5.706;2023-04-24T08:54:30;15.18;;;7.20;;
42714;SDS011;28351;51.480;5.706;2023-04-24T08:57:00;19.15;;;6.60;;
42714;SDS011;28351;51.480;5.706;2023-04-24T08:59:30;17.27;;;7.10;;
42714;SDS011;28351;51.480;5.706;2023-04-24T09:01:56;22.02;;;7.20;;
42714;SDS011;28351;51.480;5.706;2023-04-24T09:04:22;17.10;;;7.72;;
42714;SDS011;28351;51.480;5.706;2023-04-24T09:06:50;16.45;;;7.60;;
42714;SDS011;28351;51.480;5.706;2023-04-24T09:09:17;21.42;;;8.00;;
42714;SDS011;28351;51.480;5.706;2023-04-24T09:11:45;18.48;;;8.13;;
42714;SDS011;28351;51.480;5.706;2023-04-24T09:14:11;16.55;;;7.53;;
42714;SDS011;28351;51.480;5.706;2023-04-24T09:16:38;20.13;;;7.32;;
42714;SDS011;28351;51.480;5.706;2023-04-24T09:19:03;18.45;;;6.15;;
42714;SDS011;28351;51.480;5.706;2023-04-24T09:21:33;17.95;;;6.20;;
42714;SDS011;28351;51.480;5.706;2023-04-24T09:24:00;16.38;;;5.40;;
42714;SDS011;28351;51.480;5.706;2023-04-24T09:26:31;11.13;;;4.68;;
42714;SDS011;28351;51.480;5.706;2023-04-24T09:28:57;15.43;;;5.63;;
42714;SDS011;28351;51.480;5.706;2023-04-24T09:31:23;13.50;;;5.82;;
42714;SDS011;28351;51.480;5.706;2023-04-24T09:36:49;14.82;;;4.43;;
42714;SDS011;28351;51.480;5.706;2023-04-24T09:39:16;10.38;;;4.40;;
42714;SDS011;28351;51.480;5.706;2023-04-24T09:41:53;8.43;;;3.50;;
42714;SDS011;28351;51.480;5.706;2023-04-24T09:44:24;9.10;;;3.60;;
42714;SDS011;28351;51.480;5.706;2023-04-24T09:46:55;7.78;;;3.60;;
42714;SDS011;28351;51.480;5.706;2023-04-24T09:49:23;7.95;;;3.83;;
42714;SDS011;28351;51.480;5.706;2023-04-24T09:52:02;9.50;;;4.60;;
42714;SDS011;28351;51.480;5.706;2023-04-24T09:54:46;14.38;;;4.55;;
42714;SDS011;28351;51.480;5.706;2023-04-24T09:57:20;10.85;;;4.13;;
42714;SDS011;28351;51.480;5.706;2023-04-24T09:59:45;9.13;;;3.95;;
42714;SDS011;28351;51.480;5.706;2023-04-24T10:02:18;8.57;;;3.85;;
42714;SDS011;28351;51.480;5.706;2023-04-24T10:04:53;16.65;;;3.80;;
42714;SDS011;28351;51.480;5.706;2023-04-24T10:07:21;12.77;;;4.00;;
42714;SDS011;28351;51.480;5.706;2023-04-24T10:09:47;9.85;;;3.60;;
42714;SDS011;28351;51.480;5.706;2023-04-24T10:12:28;5.63;;;2.72;;
42714;SDS011;28351;51.480;5.706;2023-04-24T10:14:55;8.10;;;2.53;;
42714;SDS011;28351;51.480;5.706;2023-04-24T10:17:22;9.60;;;2.33;;
42714;SDS011;28351;51.480;5.706;2023-04-24T10:19:50;5.00;;;2.60;;
42714;SDS011;28351;51.480;5.706;2023-04-24T10:22:28;4.85;;;2.00;;
42714;SDS011;28351;51.480;5.706;2023-04-24T10:24:55;6.47;;;1.92;;
42714;SDS011;28351;51.480;5.706;2023-04-24T10:27:21;3.45;;;1.77;;
42714;SDS011;28351;51.480;5.706;2023-04-24T10:29:49;5.57;;;1.70;;
42714;SDS011;28351;51.480;5.706;2023-04-24T10:32:18;4.97;;;2.10;;
42714;SDS011;28351;51.480;5.706;2023-04-24T10:34:43;5.88;;;2.20;;
42714;SDS011;28351;51.480;5.706;2023-04-24T10:37:09;12.52;;;2.00;;
42714;SDS011;28351;51.480;5.706;2023-04-24T10:39:35;5.15;;;1.77;;
42714;SDS011;28351;51.480;5.706;2023-04-24T10:42:07;5.90;;;2.63;;
42714;SDS011;28351;51.480;5.706;2023-04-24T10:44:39;5.53;;;1.90;;
42714;SDS011;28351;51.480;5.706;2023-04-24T10:47:05;4.00;;;1.63;;
42714;SDS011;28351;51.480;5.706;2023-04-24T10:49:38;4.40;;;2.20;;
42714;SDS011;28351;51.480;5.706;2023-04-24T10:52:03;3.25;;;1.17;;
42714;SDS011;28351;51.480;5.706;2023-04-24T10:59:44;3.92;;;1.10;;
42714;SDS011;28351;51.480;5.706;2023-04-24T11:02:10;0.77;;;0.73;;
42714;SDS011;28351;51.480;5.706;2023-04-24T11:04:35;4.78;;;1.00;;
42714;SDS011;28351;51.480;5.706;2023-04-24T11:07:04;2.50;;;1.10;;
42714;SDS011;28351;51.480;5.706;2023-04-24T11:09:30;2.63;;;0.90;;
42714;SDS011;28351;51.480;5.706;2023-04-24T11:12:06;4.13;;;1.00;;
42714;SDS011;28351;51.480;5.706;2023-04-24T11:17:38;1.65;;;1.30;;
42714;SDS011;28351;51.480;5.706;2023-04-24T11:20:06;3.83;;;0.90;;
42714;SDS011;28351;51.480;5.706;2023-04-24T11:22:34;1.85;;;1.00;;
42714;SDS011;28351;51.480;5.706;2023-04-24T11:25:01;5.18;;;1.38;;
42714;SDS011;28351;51.480;5.706;2023-04-24T11:27:32;3.42;;;1.00;;
42714;SDS011;28351;51.480;5.706;2023-04-24T11:30:07;1.30;;;0.70;;
42714;SDS011;28351;51.480;5.706;2023-04-24T11:32:35;4.15;;;1.25;;
42714;SDS011;28351;51.480;5.706;2023-04-24T11:37:55;5.50;;;1.08;;
42714;SDS011;28351;51.480;5.706;2023-04-24T11:40:21;2.67;;;1.05;;
42714;SDS011;28351;51.480;5.706;2023-04-24T11:42:48;3.92;;;1.00;;
42714;SDS011;28351;51.480;5.706;2023-04-24T11:45:22;1.77;;;1.02;;
42714;SDS011;28351;51.480;5.706;2023-04-24T11:47:49;3.55;;;1.88;;
42714;SDS011;28351;51.480;5.706;2023-04-24T11:50:15;3.05;;;1.23;;
42714;SDS011;28351;51.480;5.706;2023-04-24T11:52:47;4.00;;;1.25;;
42714;SDS011;28351;51.480;5.706;2023-04-24T11:57:39;1.88;;;1.00;;
42714;SDS011;28351;51.480;5.706;2023-04-24T12:00:14;1.92;;;0.88;;
42714;SDS011;28351;51.480;5.706;2023-04-24T12:03:02;3.13;;;1.30;;
42714;SDS011;28351;51.480;5.706;2023-04-24T12:05:32;4.38;;;1.42;;
42714;SDS011;28351;51.480;5.706;2023-04-24T12:07:58;4.63;;;1.60;;
42714;SDS011;28351;51.480;5.706;2023-04-24T12:10:25;3.03;;;1.08;;
42714;SDS011;28351;51.480;5.706;2023-04-24T12:12:52;3.13;;;1.20;;
42714;SDS011;28351;51.480;5.706;2023-04-24T12:15:19;4.60;;;1.10;;
42714;SDS011;28351;51.480;5.706;2023-04-24T12:17:46;6.78;;;1.13;;
42714;SDS011;28351;51.480;5.706;2023-04-24T12:20:13;4.45;;;1.33;;
42714;SDS011;28351;51.480;5.706;2023-04-24T12:25:38;2.67;;;0.93;;
42714;SDS011;28351;51.480;5.706;2023-04-24T12:30:38;4.47;;;1.10;;
42714;SDS011;28351;51.480;5.706;2023-04-24T12:33:06;1.17;;;0.73;;
42714;SDS011;28351;51.480;5.706;2023-04-24T12:35:32;1.30;;;0.90;;
42714;SDS011;28351;51.480;5.706;2023-04-24T12:38:08;3.90;;;0.95;;
42714;SDS011;28351;51.480;5.706;2023-04-24T12:40:35;2.15;;;0.77;;
42714;SDS011;28351;51.480;5.706;2023-04-24T12:43:00;3.20;;;1.10;;
42714;SDS011;28351;51.480;5.706;2023-04-24T12:45:26;4.10;;;0.85;;
42714;SDS011;28351;51.480;5.706;2023-04-24T12:47:53;3.05;;;0.88;;
42714;SDS011;28351;51.480;5.706;2023-04-24T12:50:19;3.20;;;0.90;;
42714;SDS011;28351;51.480;5.706;2023-04-24T12:52:44;3.28;;;1.20;;
42714;SDS011;28351;51.480;5.706;2023-04-24T12:55:19;2.85;;;1.38;;
42714;SDS011;28351;51.480;5.706;2023-04-24T12:57:44;2.58;;;0.90;;
42714;SDS011;28351;51.480;5.706;2023-04-24T13:00:10;1.70;;;1.02;;
42714;SDS011;28351;51.480;5.706;2023-04-24T13:02:36;2.30;;;0.70;;
42714;SDS011;28351;51.480;5.706;2023-04-24T13:05:02;3.00;;;0.75;;
42714;SDS011;28351;51.480;5.706;2023-04-24T13:07:27;2.15;;;0.60;;
42714;SDS011;28351;51.480;5.706;2023-04-24T13:09:54;3.00;;;0.88;;
42714;SDS011;28351;51.480;5.706;2023-04-24T13:12:20;1.92;;;0.90;;
42714;SDS011;28351;51.480;5.706;2023-04-24T13:14:46;2.22;;;1.17;;
42714;SDS011;28351;51.480;5.706;2023-04-24T13:17:12;3.90;;;0.80;;
42714;SDS011;28351;51.480;5.706;2023-04-24T13:19:41;1.63;;;0.98;;
42714;SDS011;28351;51.480;5.706;2023-04-24T13:22:11;0.60;;;0.60;;
42714;SDS011;28351;51.480;5.706;2023-04-24T13:24:38;1.38;;;0.57;;
42714;SDS011;28351;51.480;5.706;2023-04-24T13:27:05;2.45;;;1.05;;
42714;SDS011;28351;51.480;5.706;2023-04-24T13:29:31;1.15;;;0.80;;
42714;SDS011;28351;51.480;5.706;2023-04-24T13:31:57;0.93;;;0.80;;
42714;SDS011;28351;51.480;5.706;2023-04-24T13:34:23;1.52;;;0.82;;
42714;SDS011;28351;51.480;5.706;2023-04-24T13:36:50;1.88;;;1.10;;
42714;SDS011;28351;51.480;5.706;2023-04-24T13:39:17;1.17;;;1.02;;
42714;SDS011;28351;51.480;5.706;2023-04-24T13:41:43;2.97;;;0.90;;
42714;SDS011;28351;51.480;5.706;2023-04-24T13:44:09;1.13;;;0.73;;
42714;SDS011;28351;51.480;5.706;2023-04-24T13:46:35;2.95;;;0.90;;
42714;SDS011;28351;51.480;5.706;2023-04-24T13:49:01;3.67;;;0.90;;
42714;SDS011;28351;51.480;5.706;2023-04-24T13:51:28;3.27;;;1.10;;
42714;SDS011;28351;51.480;5.706;2023-04-24T13:53:54;2.92;;;1.10;;
42714;SDS011;28351;51.480;5.706;2023-04-24T13:56:20;4.03;;;1.08;;
42714;SDS011;28351;51.480;5.706;2023-04-24T13:58:47;0.98;;;0.82;;
42714;SDS011;28351;51.480;5.706;2023-04-24T14:01:13;1.52;;;0.80;;
42714;SDS011;28351;51.480;5.706;2023-04-24T14:03:40;6.30;;;0.90;;
42714;SDS011;28351;51.480;5.706;2023-04-24T14:06:09;3.20;;;1.10;;
42714;SDS011;28351;51.480;5.706;2023-04-24T14:08:34;2.92;;;1.20;;
42714;SDS011;28351;51.480;5.706;2023-04-24T14:11:00;0.88;;;0.73;;
42714;SDS011;28351;51.480;5.706;2023-04-24T14:13:26;3.47;;;1.25;;
42714;SDS011;28351;51.480;5.706;2023-04-24T14:15:52;4.97;;;1.27;;
42714;SDS011;28351;51.480;5.706;2023-04-24T14:18:18;4.97;;;1.30;;
42714;SDS011;28351;51.480;5.706;2023-04-24T14:20:44;7.05;;;1.45;;
42714;SDS011;28351;51.480;5.706;2023-04-24T14:23:10;6.65;;;1.20;;
42714;SDS011;28351;51.480;5.706;2023-04-24T14:25:35;6.40;;;1.23;;
42714;SDS011;28351;51.480;5.706;2023-04-24T14:28:01;6.32;;;1.77;;
42714;SDS011;28351;51.480;5.706;2023-04-24T14:30:27;2.15;;;1.10;;
42714;SDS011;28351;51.480;5.706;2023-04-24T14:32:52;4.38;;;1.30;;
42714;SDS011;28351;51.480;5.706;2023-04-24T14:35:18;2.40;;;1.23;;
42714;SDS011;28351;51.480;5.706;2023-04-24T14:37:44;2.08;;;1.70;;
42714;SDS011;28351;51.480;5.706;2023-04-24T14:40:10;3.45;;;1.30;;
42714;SDS011;28351;51.480;5.706;2023-04-24T14:42:36;2.45;;;1.30;;
42714;SDS011;28351;51.480;5.706;2023-04-24T14:45:01;2.03;;;1.05;;
42714;SDS011;28351;51.480;5.706;2023-04-24T14:47:27;3.85;;;1.55;;
42714;SDS011;28351;51.480;5.706;2023-04-24T14:49:54;6.45;;;1.88;;
42714;SDS011;28351;51.480;5.706;2023-04-24T14:52:23;2.80;;;1.10;;
42714;SDS011;28351;51.480;5.706;2023-04-24T14:54:48;1.65;;;1.23;;
42714;SDS011;28351;51.480;5.706;2023-04-24T14:57:14;2.13;;;1.30;;
42714;SDS011;28351;51.480;5.706;2023-04-24T14:59:40;2.00;;;1.20;;
42714;SDS011;28351;51.480;5.706;2023-04-24T15:02:06;1.95;;;1.02;;
42714;SDS011;28351;51.480;5.706;2023-04-24T15:04:31;2.13;;;1.20;;
42714;SDS011;28351;51.480;5.706;2023-04-24T15:06:57;1.75;;;1.00;;
42714;SDS011;28351;51.480;5.706;2023-04-24T15:09:23;1.67;;;0.80;;